createdAt,value
2022-08-28T00:00:37.146Z,21.17
2022-08-28T00:03:05.759Z,22.33
2022-08-28T00:05:34.568Z,18.30
2022-08-28T00:08:01.283Z,19.17
2022-08-28T00:10:28.619Z,11.80
2022-08-28T00:12:57.418Z,16.77
2022-08-28T00:15:33.876Z,15.07
2022-08-28T00:18:03.636Z,15.53
2022-08-28T00:20:31.682Z,17.67
2022-08-28T00:23:00.385Z,21.07
2022-08-28T00:25:30.292Z,22.03
2022-08-28T00:28:00.652Z,17.30
2022-08-28T00:30:37.274Z,14.93
2022-08-28T00:33:08.272Z,16.07
2022-08-28T00:35:40.615Z,17.13
2022-08-28T00:38:09.880Z,13.80
2022-08-28T00:40:38.908Z,19.17
2022-08-28T00:43:08.140Z,18.30
2022-08-28T00:45:39.640Z,17.83
2022-08-28T00:48:07.590Z,18.33
2022-08-28T00:50:56.829Z,20.90
2022-08-28T00:53:32.944Z,15.53
2022-08-28T00:56:04.223Z,19.03
2022-08-28T00:58:38.164Z,18.13
2022-08-28T01:01:05.062Z,17.13
2022-08-28T01:03:31.801Z,19.13
2022-08-28T01:05:58.576Z,22.17
2022-08-28T01:08:25.402Z,20.90
2022-08-28T01:11:01.169Z,25.23
2022-08-28T01:13:29.414Z,24.73
2022-08-28T01:15:57.389Z,17.53
2022-08-28T01:18:26.696Z,21.57
2022-08-28T01:21:05.584Z,28.43
2022-08-28T01:23:51.665Z,18.80
2022-08-28T01:26:18.355Z,16.97
2022-08-28T01:28:45.561Z,21.13
2022-08-28T01:31:14.855Z,20.67
2022-08-28T01:33:42.806Z,12.50
2022-08-28T01:36:15.920Z,20.80
2022-08-28T01:38:45.505Z,23.40
2022-08-28T01:41:14.034Z,15.20
2022-08-28T01:43:42.882Z,14.57
2022-08-28T01:46:12.312Z,23.57
2022-08-28T01:48:42.615Z,25.17
2022-08-28T01:51:10.652Z,18.30
2022-08-28T01:53:38.467Z,18.73
2022-08-28T01:56:11.195Z,16.00
2022-08-28T01:58:39.080Z,21.30
2022-08-28T02:01:13.829Z,16.37
2022-08-28T02:03:43.081Z,24.57
2022-08-28T02:06:11.313Z,23.33
2022-08-28T02:08:38.133Z,14.57
2022-08-28T02:11:06.413Z,13.47
2022-08-28T02:13:35.518Z,13.43
2022-08-28T02:16:05.025Z,21.10
2022-08-28T02:18:32.223Z,15.97
2022-08-28T02:20:59.413Z,20.37
2022-08-28T02:23:26.154Z,13.30
2022-08-28T02:25:53.152Z,20.07
2022-08-28T02:28:19.950Z,14.97
2022-08-28T02:30:46.707Z,15.43
2022-08-28T02:33:13.448Z,16.43
2022-08-28T02:35:42.499Z,17.90
2022-08-28T02:38:10.381Z,14.57
2022-08-28T02:40:38.532Z,12.87
2022-08-28T02:43:05.843Z,19.63
2022-08-28T02:45:33.324Z,10.73
2022-08-28T02:48:01.664Z,17.60
2022-08-28T02:50:29.933Z,15.20
2022-08-28T02:52:57.211Z,19.90
2022-08-28T02:55:24.808Z,17.93
2022-08-28T02:57:52.862Z,14.50
2022-08-28T03:00:23.808Z,12.00
2022-08-28T03:02:50.965Z,15.63
2022-08-28T03:05:22.368Z,18.07
2022-08-28T03:07:50.471Z,24.63
2022-08-28T03:10:18.366Z,20.07
2022-08-28T03:12:45.365Z,13.93
2022-08-28T03:15:12.781Z,19.40
2022-08-28T03:17:40.382Z,16.37
2022-08-28T03:20:11.738Z,14.30
2022-08-28T03:22:56.964Z,21.27
2022-08-28T03:25:24.809Z,13.43
2022-08-28T03:27:52.177Z,15.47
2022-08-28T03:30:19.962Z,18.73
2022-08-28T03:32:46.893Z,20.70
2022-08-28T03:35:14.039Z,16.23
2022-08-28T03:37:41.082Z,18.63
2022-08-28T03:40:09.319Z,26.70
2022-08-28T03:42:36.323Z,16.87
2022-08-28T03:45:05.364Z,17.60
2022-08-28T03:47:32.223Z,18.37
2022-08-28T03:49:59.135Z,14.83
2022-08-28T03:52:26.149Z,20.30
2022-08-28T03:54:52.915Z,18.70
2022-08-28T03:57:22.169Z,27.97
2022-08-28T03:59:51.414Z,24.80
2022-08-28T04:02:20.619Z,15.77
2022-08-28T04:04:48.936Z,22.30
2022-08-28T04:07:22.980Z,21.13
2022-08-28T04:09:50.025Z,17.33
2022-08-28T04:12:16.839Z,22.87
2022-08-28T04:14:43.548Z,16.40
2022-08-28T04:17:10.295Z,18.60
2022-08-28T04:19:38.020Z,20.07
2022-08-28T04:22:05.099Z,18.17
2022-08-28T04:24:31.790Z,16.00
2022-08-28T04:26:58.543Z,17.33
2022-08-28T04:29:25.268Z,24.27
2022-08-28T04:31:52.010Z,15.93
2022-08-28T04:34:19.444Z,15.67
2022-08-28T04:36:46.795Z,17.30
2022-08-28T04:39:13.633Z,19.33
2022-08-28T04:41:40.606Z,15.33
2022-08-28T04:44:08.068Z,18.60
2022-08-28T04:46:35.655Z,12.47
2022-08-28T04:49:04.220Z,18.60
2022-08-28T04:51:32.202Z,18.33
2022-08-28T04:54:01.374Z,17.27
2022-08-28T04:56:28.217Z,16.53
2022-08-28T04:58:55.246Z,16.83
2022-08-28T05:01:27.073Z,14.90
2022-08-28T05:04:00.508Z,12.60
2022-08-28T05:06:29.169Z,14.53
2022-08-28T05:09:01.056Z,17.90
2022-08-28T05:11:33.208Z,13.77
2022-08-28T05:14:00.890Z,9.77
2022-08-28T05:16:27.652Z,16.20
2022-08-28T05:18:54.413Z,20.97
2022-08-28T05:21:22.931Z,14.97
2022-08-28T05:23:54.170Z,18.43
2022-08-28T05:26:21.126Z,15.17
2022-08-28T05:28:48.598Z,16.73
2022-08-28T05:31:18.860Z,12.33
2022-08-28T05:33:48.585Z,16.43
2022-08-28T05:36:16.614Z,17.37
2022-08-28T05:38:44.346Z,17.00
2022-08-28T05:41:11.966Z,20.83
2022-08-28T05:43:39.485Z,15.63
2022-08-28T05:46:10.504Z,18.60
2022-08-28T05:48:39.640Z,16.83
2022-08-28T05:51:12.402Z,16.47
2022-08-28T05:53:41.508Z,20.70
2022-08-28T05:56:09.830Z,11.83
2022-08-28T05:58:37.741Z,22.67
2022-08-28T06:01:15.331Z,16.70
2022-08-28T06:03:50.979Z,24.23
2022-08-28T06:06:17.678Z,21.03
2022-08-28T06:08:58.097Z,15.27
2022-08-28T06:11:30.921Z,11.30
2022-08-28T06:14:02.950Z,20.10
2022-08-28T06:16:31.661Z,18.30
2022-08-28T06:18:59.169Z,17.97
2022-08-28T06:21:26.082Z,19.10
2022-08-28T06:23:53.172Z,15.40
2022-08-28T06:26:20.280Z,18.57
2022-08-28T06:28:47.110Z,13.60
2022-08-28T06:31:23.610Z,18.10
2022-08-28T06:33:57.049Z,12.63
2022-08-28T06:36:27.299Z,11.60
2022-08-28T06:38:55.621Z,15.53
2022-08-28T06:41:22.428Z,14.67
2022-08-28T06:43:49.211Z,9.50
2022-08-28T06:46:16.453Z,13.07
2022-08-28T06:48:43.231Z,13.23
2022-08-28T06:51:12.039Z,12.27
2022-08-28T06:53:40.788Z,11.75
2022-08-28T06:56:21.139Z,15.63
2022-08-28T06:58:52.907Z,15.53
2022-08-28T07:01:27.185Z,15.27
2022-08-28T07:03:56.823Z,14.07
2022-08-28T07:06:24.374Z,14.63
2022-08-28T07:08:51.463Z,19.93
2022-08-28T07:11:20.953Z,23.17
2022-08-28T07:13:48.535Z,18.20
2022-08-28T07:16:18.879Z,14.97
2022-08-28T07:18:46.612Z,11.50
2022-08-28T07:21:13.742Z,12.80
2022-08-28T07:23:44.289Z,14.07
2022-08-28T07:26:14.464Z,15.03
2022-08-28T07:28:41.360Z,18.33
2022-08-28T07:31:13.744Z,17.57
2022-08-28T07:33:50.090Z,14.53
2022-08-28T07:36:29.858Z,13.10
2022-08-28T07:38:59.187Z,12.20
2022-08-28T07:41:28.994Z,12.97
2022-08-28T07:44:14.808Z,15.73
2022-08-28T07:46:44.714Z,18.50
2022-08-28T07:49:12.759Z,22.27
2022-08-28T07:51:39.561Z,12.30
2022-08-28T07:54:06.293Z,12.27
2022-08-28T07:56:40.813Z,20.50
2022-08-28T07:59:09.809Z,12.23
2022-08-28T08:01:39.997Z,15.53
2022-08-28T08:04:09.543Z,14.87
2022-08-28T08:06:37.570Z,12.90
2022-08-28T08:09:05.612Z,12.87
2022-08-28T08:11:32.820Z,11.77
2022-08-28T08:14:04.769Z,15.27
2022-08-28T08:16:34.963Z,9.00
2022-08-28T08:19:02.447Z,13.40
2022-08-28T08:21:30.514Z,14.80
2022-08-28T08:23:58.334Z,14.63
2022-08-28T08:26:28.259Z,12.30
2022-08-28T08:28:56.238Z,17.73
2022-08-28T08:31:26.783Z,11.23
2022-08-28T08:33:57.052Z,15.97
2022-08-28T08:36:26.743Z,15.23
2022-08-28T08:38:59.372Z,10.47
2022-08-28T08:41:39.074Z,12.80
2022-08-28T08:44:24.064Z,13.07
2022-08-28T08:47:19.416Z,13.80
2022-08-28T08:49:54.558Z,12.93
2022-08-28T08:52:34.408Z,12.83
2022-08-28T08:55:03.469Z,18.20
2022-08-28T08:57:31.717Z,16.48
2022-08-28T08:59:58.589Z,14.82
2022-08-28T09:02:33.626Z,14.57
2022-08-28T09:05:07.410Z,11.10
2022-08-28T09:07:34.016Z,13.17
2022-08-28T09:10:04.709Z,15.60
2022-08-28T09:12:44.017Z,15.23
2022-08-28T09:15:17.626Z,11.87
2022-08-28T09:17:52.901Z,14.98
2022-08-28T09:20:32.300Z,15.40
2022-08-28T09:23:00.577Z,9.98
2022-08-28T09:25:44.327Z,13.88
2022-08-28T09:28:16.893Z,14.57
2022-08-28T09:30:44.719Z,8.75
2022-08-28T09:33:11.482Z,7.78
2022-08-28T09:35:38.471Z,12.27
2022-08-28T09:38:27.563Z,11.93
2022-08-28T09:41:31.414Z,12.30
2022-08-28T09:43:59.267Z,13.83
2022-08-28T09:46:32.155Z,12.50
2022-08-28T09:49:12.052Z,13.60
2022-08-28T09:51:39.876Z,8.43
2022-08-28T09:54:23.508Z,19.80
2022-08-28T09:56:50.765Z,10.88
2022-08-28T09:59:20.699Z,13.85
2022-08-28T10:01:50.908Z,15.68
2022-08-28T10:04:29.537Z,9.88
2022-08-28T10:07:24.474Z,13.57
2022-08-28T10:10:00.267Z,7.45
2022-08-28T10:12:48.586Z,10.32
2022-08-28T10:15:26.078Z,8.10
2022-08-28T10:18:19.924Z,9.68
2022-08-28T10:20:49.499Z,10.02
2022-08-28T10:23:37.185Z,8.23
2022-08-28T10:26:42.276Z,8.70
2022-08-28T10:29:23.117Z,10.02
2022-08-28T10:32:08.231Z,12.60
2022-08-28T10:35:06.025Z,11.68
2022-08-28T10:37:38.654Z,8.48
2022-08-28T10:40:18.505Z,9.00
2022-08-28T10:43:02.236Z,10.88
2022-08-28T10:45:30.712Z,10.02
2022-08-28T10:48:06.905Z,12.02
2022-08-28T10:50:42.886Z,6.65
2022-08-28T10:53:26.398Z,13.20
2022-08-28T10:55:58.279Z,7.75
2022-08-28T10:58:27.642Z,8.07
2022-08-28T11:01:05.187Z,8.43
2022-08-28T11:03:41.851Z,15.23
2022-08-28T11:06:25.488Z,9.65
2022-08-28T11:08:56.220Z,10.00
2022-08-28T11:11:43.157Z,9.32
2022-08-28T11:14:10.587Z,9.52
2022-08-28T11:16:46.712Z,12.23
2022-08-28T11:19:32.582Z,10.00
2022-08-28T11:22:08.752Z,10.35
2022-08-28T11:24:55.147Z,16.00
2022-08-28T11:27:38.581Z,10.35
2022-08-28T11:30:11.266Z,7.90
2022-08-28T11:32:51.188Z,10.73
2022-08-28T11:35:20.805Z,12.32
2022-08-28T11:37:50.193Z,12.35
2022-08-28T11:40:20.061Z,12.70
2022-08-28T11:42:50.154Z,13.77
2022-08-28T11:45:48.010Z,8.57
2022-08-28T11:48:33.576Z,10.68
2022-08-28T11:51:04.788Z,9.80
2022-08-28T11:53:46.621Z,10.00
2022-08-28T11:56:31.500Z,7.85
2022-08-28T11:59:16.638Z,11.88
2022-08-28T12:01:43.886Z,12.63
2022-08-28T12:04:17.571Z,13.48
2022-08-28T12:06:47.425Z,11.82
2022-08-28T12:09:26.444Z,14.85
2022-08-28T12:11:59.420Z,16.63
2022-08-28T12:14:26.008Z,12.40
2022-08-28T12:16:58.782Z,15.98
2022-08-28T12:19:34.050Z,8.23
2022-08-28T12:22:06.769Z,12.02
2022-08-28T12:24:35.476Z,11.43
2022-08-28T12:27:03.517Z,11.75
2022-08-28T12:29:45.041Z,8.68
2022-08-28T12:32:32.924Z,11.95
2022-08-28T12:34:59.509Z,11.57
2022-08-28T12:37:39.882Z,9.63
2022-08-28T12:40:32.127Z,10.68
2022-08-28T12:43:05.520Z,9.40
2022-08-28T12:45:40.735Z,12.70
2022-08-28T12:48:29.538Z,8.35
2022-08-28T12:51:03.308Z,9.20
2022-08-28T12:53:47.915Z,15.63
2022-08-28T12:56:17.885Z,11.73
2022-08-28T12:58:46.168Z,9.35
2022-08-28T13:01:26.622Z,8.00
2022-08-28T13:03:59.509Z,10.85
2022-08-28T13:06:40.072Z,8.27
2022-08-28T13:09:16.053Z,10.68
2022-08-28T13:11:49.222Z,12.88
2022-08-28T13:14:46.166Z,16.23
2022-08-28T13:17:18.964Z,10.32
2022-08-28T13:19:45.655Z,8.65
2022-08-28T13:22:34.623Z,8.25
2022-08-28T13:25:03.289Z,8.30
2022-08-28T13:27:30.091Z,14.93
2022-08-28T13:30:06.207Z,12.77
2022-08-28T13:32:36.746Z,12.02
2022-08-28T13:35:13.746Z,11.35
2022-08-28T13:37:49.324Z,9.93
2022-08-28T13:40:55.767Z,15.45
2022-08-28T13:43:11.727Z,12.00
2022-08-28T13:45:46.297Z,13.48
2022-08-28T13:48:32.222Z,14.00
2022-08-28T13:51:05.509Z,13.00
2022-08-28T13:53:36.895Z,7.13
2022-08-28T13:56:03.732Z,8.50
2022-08-28T13:58:30.517Z,7.43
2022-08-28T14:00:57.570Z,14.52
2022-08-28T14:03:36.513Z,17.73
2022-08-28T14:06:06.017Z,13.18
2022-08-28T14:08:33.875Z,14.20
2022-08-28T14:11:00.922Z,12.23
2022-08-28T14:13:27.973Z,14.57
2022-08-28T14:15:56.476Z,9.02
2022-08-28T14:18:25.138Z,7.15
2022-08-28T14:20:52.153Z,9.38
2022-08-28T14:23:18.937Z,11.23
2022-08-28T14:25:49.638Z,11.65
2022-08-28T14:28:42.357Z,10.50
2022-08-28T14:31:13.828Z,10.20
2022-08-28T14:33:42.388Z,9.25
2022-08-28T14:36:21.783Z,11.25
2022-08-28T14:38:52.684Z,10.07
2022-08-28T14:41:22.387Z,10.45
2022-08-28T14:43:49.654Z,10.43
2022-08-28T14:46:29.010Z,14.27
2022-08-28T14:48:59.144Z,11.18
2022-08-28T14:51:27.006Z,14.85
2022-08-28T14:53:53.885Z,13.93
2022-08-28T14:56:22.317Z,12.05
2022-08-28T14:58:49.254Z,15.55
2022-08-28T15:01:39.938Z,11.88
2022-08-28T15:04:11.681Z,11.52
2022-08-28T15:06:38.897Z,13.48
2022-08-28T15:09:05.895Z,11.85
2022-08-28T15:11:32.681Z,11.02
2022-08-28T15:13:59.517Z,10.38
2022-08-28T15:16:30.588Z,12.43
2022-08-28T15:18:59.959Z,7.82
2022-08-28T15:21:34.106Z,8.80
2022-08-28T15:24:03.382Z,9.45
2022-08-28T15:26:30.925Z,12.25
2022-08-28T15:29:02.468Z,13.55
2022-08-28T15:31:35.175Z,15.02
2022-08-28T15:34:13.270Z,11.55
2022-08-28T15:36:42.773Z,10.60
2022-08-28T15:39:29.055Z,12.40
2022-08-28T15:41:57.152Z,11.63
2022-08-28T15:44:24.167Z,8.50
2022-08-28T15:46:56.983Z,10.07
2022-08-28T15:49:25.089Z,16.45
2022-08-28T15:51:52.632Z,14.65
2022-08-28T15:54:20.645Z,8.65
2022-08-28T15:56:52.666Z,16.85
2022-08-28T15:59:20.849Z,7.65
2022-08-28T16:01:47.821Z,10.32
2022-08-28T16:04:15.308Z,8.75
2022-08-28T16:06:42.514Z,8.55
2022-08-28T16:09:10.229Z,9.98
2022-08-28T16:11:38.823Z,12.70
2022-08-28T16:14:07.290Z,7.75
2022-08-28T16:16:34.571Z,9.70
2022-08-28T16:19:01.715Z,14.23
2022-08-28T16:21:28.615Z,13.02
2022-08-28T16:23:55.601Z,17.95
2022-08-28T16:26:22.868Z,9.95
2022-08-28T16:28:49.943Z,11.88
2022-08-28T16:31:18.931Z,14.25
2022-08-28T16:33:47.801Z,11.57
2022-08-28T16:36:15.226Z,14.23
2022-08-28T16:38:44.127Z,12.20
2022-08-28T16:41:23.995Z,12.98
2022-08-28T16:43:54.676Z,9.38
2022-08-28T16:46:24.441Z,10.85
2022-08-28T16:48:52.551Z,12.77
2022-08-28T16:51:20.581Z,9.68
2022-08-28T16:53:47.845Z,10.07
2022-08-28T16:56:17.283Z,11.80
2022-08-28T16:58:45.119Z,15.75
2022-08-28T17:01:13.644Z,11.18
2022-08-28T17:03:41.842Z,13.40
2022-08-28T17:06:15.976Z,14.00
2022-08-28T17:08:43.902Z,11.18
2022-08-28T17:11:11.340Z,15.65
2022-08-28T17:13:38.330Z,10.80
2022-08-28T17:16:06.021Z,15.20
2022-08-28T17:18:33.025Z,16.23
2022-08-28T17:21:18.406Z,16.83
2022-08-28T17:23:49.507Z,13.55
2022-08-28T17:26:17.078Z,14.13
2022-08-28T17:28:44.919Z,14.45
2022-08-28T17:31:14.315Z,20.50
2022-08-28T17:33:43.742Z,16.87
2022-08-28T17:36:25.685Z,14.30
2022-08-28T17:39:02.645Z,19.88
2022-08-28T17:41:29.510Z,17.87
2022-08-28T17:44:00.523Z,24.53
2022-08-28T17:46:27.454Z,13.00
2022-08-28T17:48:56.117Z,13.37
2022-08-28T17:51:41.859Z,17.83
2022-08-28T17:54:18.842Z,14.40
2022-08-28T17:56:46.668Z,25.20
2022-08-28T17:59:14.364Z,14.63
2022-08-28T18:01:42.766Z,14.13
2022-08-28T18:04:10.382Z,15.23
2022-08-28T18:06:37.360Z,22.80
2022-08-28T18:09:05.505Z,13.30
2022-08-28T18:11:32.237Z,18.83
2022-08-28T18:13:59.852Z,11.10
2022-08-28T18:16:31.145Z,12.23
2022-08-28T18:19:02.540Z,16.87
2022-08-28T18:21:29.813Z,20.47
2022-08-28T18:23:56.976Z,18.60
2022-08-28T18:26:24.136Z,19.23
2022-08-28T18:28:51.408Z,17.43
2022-08-28T18:31:18.923Z,11.17
2022-08-28T18:33:45.667Z,17.90
2022-08-28T18:36:14.160Z,26.40
2022-08-28T18:38:41.889Z,18.67
2022-08-28T18:41:09.454Z,21.30
2022-08-28T18:43:36.678Z,21.97
2022-08-28T18:46:04.867Z,22.27
2022-08-28T18:48:33.104Z,19.37
2022-08-28T18:50:59.985Z,21.73
2022-08-28T18:53:28.033Z,15.77
2022-08-28T18:55:56.028Z,18.87
2022-08-28T18:58:23.342Z,14.80
2022-08-28T19:00:51.236Z,15.60
2022-08-28T19:03:18.265Z,14.67
2022-08-28T19:05:45.308Z,15.87
2022-08-28T19:08:15.277Z,16.23
2022-08-28T19:10:43.156Z,15.43
2022-08-28T19:13:10.271Z,13.43
2022-08-28T19:15:37.155Z,19.93
2022-08-28T19:18:05.418Z,19.70
2022-08-28T19:20:32.603Z,17.53
2022-08-28T19:22:59.775Z,20.13
2022-08-28T19:25:29.577Z,30.87
2022-08-28T19:28:01.697Z,16.97
2022-08-28T19:30:33.149Z,25.73
2022-08-28T19:33:02.159Z,21.77
2022-08-28T19:35:29.010Z,17.30
2022-08-28T19:37:55.959Z,23.87
2022-08-28T19:40:27.379Z,26.63
2022-08-28T19:42:54.484Z,23.27
2022-08-28T19:45:21.611Z,18.97
2022-08-28T19:47:48.803Z,27.30
2022-08-28T19:50:15.898Z,34.10
2022-08-28T19:52:44.031Z,29.47
2022-08-28T19:55:21.228Z,21.70
2022-08-28T19:57:49.358Z,24.00
2022-08-28T20:00:22.495Z,24.03
2022-08-28T20:02:51.622Z,20.57
2022-08-28T20:05:19.908Z,16.57
2022-08-28T20:07:47.088Z,26.07
2022-08-28T20:10:15.513Z,18.77
2022-08-28T20:12:48.132Z,22.10
2022-08-28T20:15:16.863Z,20.77
2022-08-28T20:17:43.649Z,29.57
2022-08-28T20:20:11.921Z,23.60
2022-08-28T20:22:38.981Z,21.27
2022-08-28T20:25:07.928Z,16.10
2022-08-28T20:27:34.588Z,25.70
2022-08-28T20:30:10.471Z,21.87
2022-08-28T20:32:40.533Z,17.17
2022-08-28T20:35:10.655Z,22.03
2022-08-28T20:37:45.060Z,25.77
2022-08-28T20:40:18.650Z,28.63
2022-08-28T20:42:46.434Z,30.73
2022-08-28T20:45:15.208Z,25.83
2022-08-28T20:47:45.168Z,23.63
2022-08-28T20:50:13.839Z,23.73
2022-08-28T20:52:41.023Z,26.80
2022-08-28T20:55:09.137Z,22.33
2022-08-28T20:57:36.589Z,21.00
2022-08-28T21:00:09.656Z,20.63
2022-08-28T21:02:37.229Z,31.00
2022-08-28T21:05:04.947Z,26.07
2022-08-28T21:07:34.824Z,20.03
2022-08-28T21:10:05.917Z,21.50
2022-08-28T21:12:37.142Z,21.33
2022-08-28T21:15:05.893Z,22.47
2022-08-28T21:17:32.722Z,30.67
2022-08-28T21:20:02.875Z,24.87
2022-08-28T21:22:31.461Z,19.60
2022-08-28T21:24:58.345Z,21.47
2022-08-28T21:27:25.129Z,23.13
2022-08-28T21:29:55.260Z,27.40
2022-08-28T21:32:22.877Z,21.70
2022-08-28T21:34:49.682Z,26.10
2022-08-28T21:37:16.387Z,25.07
2022-08-28T21:39:43.053Z,22.87
2022-08-28T21:42:10.410Z,26.83
2022-08-28T21:44:38.291Z,29.17
2022-08-28T21:47:05.454Z,19.27
2022-08-28T21:49:32.149Z,22.10
2022-08-28T21:52:03.421Z,25.73
2022-08-28T21:54:30.280Z,21.00
2022-08-28T21:56:58.901Z,20.17
2022-08-28T21:59:28.536Z,27.63
2022-08-28T22:02:04.335Z,28.60
2022-08-28T22:04:31.167Z,27.00
2022-08-28T22:07:00.750Z,21.17
2022-08-28T22:09:29.088Z,30.87
2022-08-28T22:11:55.826Z,17.27
2022-08-28T22:14:24.585Z,26.97
2022-08-28T22:16:51.288Z,26.00
2022-08-28T22:19:18.031Z,19.60
2022-08-28T22:22:03.384Z,25.70
2022-08-28T22:24:30.152Z,24.27
2022-08-28T22:26:57.362Z,24.27
2022-08-28T22:29:24.655Z,27.23
2022-08-28T22:31:51.620Z,24.67
2022-08-28T22:34:18.604Z,26.63
2022-08-28T22:36:45.265Z,25.23
2022-08-28T22:39:12.038Z,20.57
2022-08-28T22:41:38.705Z,22.73
2022-08-28T22:44:07.241Z,25.37
2022-08-28T22:46:36.973Z,22.50
2022-08-28T22:49:04.375Z,22.27
2022-08-28T22:51:33.507Z,22.20
2022-08-28T22:54:00.241Z,32.73
2022-08-28T22:56:26.953Z,23.47
2022-08-28T22:58:53.584Z,24.37
2022-08-28T23:01:23.044Z,24.73
2022-08-28T23:03:50.078Z,23.27
2022-08-28T23:06:17.172Z,23.60
2022-08-28T23:08:44.198Z,25.80
2022-08-28T23:11:11.046Z,26.70
2022-08-28T23:13:38.217Z,28.60
2022-08-28T23:16:05.263Z,25.97
2022-08-28T23:18:51.626Z,30.37
2022-08-28T23:21:23.793Z,29.33
2022-08-28T23:23:54.141Z,28.60
2022-08-28T23:26:21.119Z,23.23
2022-08-28T23:28:47.903Z,26.30
2022-08-28T23:31:14.624Z,30.33
2022-08-28T23:33:41.763Z,27.67
2022-08-28T23:36:09.360Z,32.17
2022-08-28T23:38:40.415Z,28.40
2022-08-28T23:41:10.325Z,36.37
2022-08-28T23:43:37.578Z,28.70
2022-08-28T23:46:04.894Z,30.20
2022-08-28T23:48:32.125Z,31.53
2022-08-28T23:50:58.968Z,26.20
2022-08-28T23:53:25.940Z,30.90
2022-08-28T23:55:54.678Z,27.43
2022-08-28T23:58:22.333Z,31.57
